Yellow Jacket, Colorado
Current Conditions -  °F | °C
As of 10:53 AM on Friday 21 Nov 2014 (Local Time) from KCEZ Reporting Station
Clear Clear  
Wind Chill: 45°   Ceiling: Unl
Heat Index: 45°   Visibility: 10mi
Dew Point: 19°   Wind: 0mph
Humidity: 36%   Direction: NA
Pressure: 30.08"   Gusts: NA
Location:  37.53°N, 108.72°W
Report Text: KCEZ 211753Z AUTO 00000KT 10SM CLR 07/M07 A3008 RMK AO2 SLP178 T00721072 10072 21067 58002
Loading
Personal Weather Stations






























Interactive Weather Map New forecast layout! Learn more

10-Day Weather Forecast

Advertisements
Track Severe Weather on mobile